Time;durP1;ratioP1;P1;durP2;ratioP2;P2;SDS_P1;SDS_P2;PMS_P1;PMS_P2;Temp;Humidity;BMP_temperature;BMP_pressure;BME280_temperature;BME280_humidity;BME280_pressure;Samples;Min_cycle;Max_cycle;Signal;HPM_P1;HPM_P2
2023/09/25 00:00:51;;;;;;;5.57;2.78;;;;;;;10.67;90.58;101996.72;5049948;28;20040;-75
2023/09/25 00:03:17;;;;;;;5.00;2.85;;;;;;;10.69;90.69;102008.16;5051375;28;20024;-75
2023/09/25 00:05:42;;;;;;;3.97;2.97;;;;;;;10.64;91.18;102007.81;5048887;28;20182;-74
2023/09/25 00:08:07;;;;;;;2.97;2.70;;;;;;;10.63;90.72;102006.13;5050719;28;20379;-76
2023/09/25 00:10:33;;;;;;;4.18;2.90;;;;;;;10.60;91.11;102001.94;5050672;28;20028;-76
2023/09/25 00:12:59;;;;;;;4.82;2.67;;;;;;;10.63;91.34;101997.22;5049802;28;20035;-76
2023/09/25 00:15:25;;;;;;;3.80;2.78;;;;;;;10.59;91.07;101997.56;5051269;28;20081;-76
2023/09/25 00:17:50;;;;;;;3.38;2.72;;;;;;;10.59;91.10;102007.50;5050334;28;20507;-75
2023/09/25 00:20:19;;;;;;;3.17;2.85;;;;;;;10.55;91.39;102000.78;5047559;28;20036;-76
2023/09/25 00:22:45;;;;;;;2.85;2.60;;;;;;;10.44;92.22;102002.78;5049600;28;20033;-76
2023/09/25 00:25:10;;;;;;;3.65;2.80;;;;;;;10.41;93.00;102005.78;5049268;28;20513;-76
2023/09/25 00:27:36;;;;;;;3.40;2.88;;;;;;;10.31;92.96;102002.41;5046167;28;20083;-76
2023/09/25 00:30:05;;;;;;;3.67;2.60;;;;;;;10.26;93.25;102002.91;5050682;28;20029;-76
2023/09/25 00:32:30;;;;;;;4.18;2.90;;;;;;;10.23;93.84;102008.63;5049928;28;20020;-76
2023/09/25 00:34:57;;;;;;;5.22;2.75;;;;;;;10.21;94.06;102009.81;5049581;28;20033;-75
2023/09/25 00:37:22;;;;;;;3.70;2.85;;;;;;;10.18;93.76;102007.44;5053539;28;20472;-75
2023/09/25 00:39:48;;;;;;;4.75;3.00;;;;;;;10.12;94.51;102012.47;5051441;28;20025;-75
2023/09/25 00:42:13;;;;;;;6.63;2.95;;;;;;;10.14;94.83;102023.06;5048685;28;20029;-75
2023/09/25 00:44:38;;;;;;;3.00;2.80;;;;;;;10.14;94.93;102020.38;5049578;28;20041;-75
2023/09/25 00:47:04;;;;;;;4.20;3.15;;;;;;;10.01;95.24;102015.47;5056351;28;20357;-76
2023/09/25 00:49:29;;;;;;;3.42;2.60;;;;;;;10.05;95.68;102014.16;5052749;28;20024;-75
2023/09/25 00:51:55;;;;;;;5.05;3.00;;;;;;;10.05;95.73;102015.97;5035763;28;20318;-75
2023/09/25 00:54:20;;;;;;;3.55;2.70;;;;;;;10.06;95.54;102018.50;5053517;28;20365;-76
2023/09/25 00:56:46;;;;;;;3.22;2.92;;;;;;;10.07;95.59;102019.34;5044143;28;20028;-76
2023/09/25 00:59:12;;;;;;;6.68;3.10;;;;;;;10.00;96.37;102025.38;5055400;28;20029;-78
2023/09/25 01:01:37;;;;;;;2.97;2.67;;;;;;;10.04;96.44;102017.84;5055412;28;20025;-76
2023/09/25 01:04:03;;;;;;;3.33;2.88;;;;;;;10.13;96.23;102021.38;5059306;28;20044;-74
2023/09/25 01:06:28;;;;;;;4.15;3.05;;;;;;;10.13;95.80;102024.09;5050955;28;20049;-76
2023/09/25 01:08:54;;;;;;;4.20;2.90;;;;;;;10.07;95.37;102022.88;5052336;28;20029;-75
2023/09/25 01:11:19;;;;;;;3.50;2.90;;;;;;;10.03;95.59;102016.16;5055441;28;20032;-76
2023/09/25 01:13:45;;;;;;;3.88;3.10;;;;;;;10.04;95.84;102019.69;5053264;28;20048;-76
2023/09/25 01:16:10;;;;;;;3.35;3.00;;;;;;;9.98;95.70;102021.19;5050790;28;20032;-76
2023/09/25 01:18:36;;;;;;;3.95;3.60;;;;;;;9.88;96.05;102029.38;5053406;28;20033;-76
2023/09/25 01:21:02;;;;;;;3.72;3.17;;;;;;;9.82;96.70;102027.34;5052383;28;20036;-76
2023/09/25 01:23:27;;;;;;;5.60;3.33;;;;;;;9.80;97.01;102030.19;5050791;28;20091;-75
2023/09/25 01:25:54;;;;;;;3.58;3.28;;;;;;;9.73;97.58;102034.53;5054865;28;20482;-75
2023/09/25 01:28:21;;;;;;;4.28;3.17;;;;;;;9.70;97.29;102021.44;5053060;28;20508;-76
2023/09/25 01:30:47;;;;;;;3.58;3.28;;;;;;;9.67;97.84;102022.59;5054110;28;20044;-75
2023/09/25 01:33:12;;;;;;;5.20;3.50;;;;;;;9.65;98.08;102031.81;5050372;28;20021;-75
2023/09/25 01:35:37;;;;;;;3.72;3.33;;;;;;;9.62;98.12;102029.47;5051898;28;20031;-76
2023/09/25 01:38:05;;;;;;;;;;;;;;;9.56;98.84;102022.88;5052521;28;20486;-75
2023/09/25 01:40:31;;;;;;;3.88;3.10;;;;;;;9.49;99.21;102030.75;5054624;28;19942;-76
2023/09/25 01:42:57;;;;;;;4.95;3.42;;;;;;;9.46;99.19;102023.00;5062974;28;20393;-76
2023/09/25 01:45:22;;;;;;;4.28;3.88;;;;;;;9.40;99.80;102021.81;5053484;28;20025;-76
2023/09/25 01:47:51;;;;;;;4.35;3.50;;;;;;;9.39;100.00;102019.25;5057462;28;20032;-76
2023/09/25 01:50:24;;;;;;;3.90;3.50;;;;;;;9.36;100.00;102020.44;5048563;28;20064;-76
2023/09/25 01:55:30;;;;;;;4.32;3.80;;;;;;;9.25;100.00;102024.25;5711953;22;20052;-76
2023/09/25 01:57:56;;;;;;;4.28;3.67;;;;;;;9.24;100.00;102019.03;5052598;28;20071;-76
2023/09/25 02:00:21;;;;;;;4.00;3.60;;;;;;;9.28;100.00;102019.56;5052379;28;20025;-75
2023/09/25 02:02:46;;;;;;;;;;;;;;;9.24;100.00;102017.19;5053742;28;20028;-76
2023/09/25 02:05:13;;;;;;;5.05;3.83;;;;;;;9.21;100.00;102020.19;5052673;28;19913;-76
2023/09/25 02:07:39;;;;;;;4.78;4.00;;;;;;;9.20;100.00;102020.34;5053307;28;20117;-75
2023/09/25 02:10:05;;;;;;;4.38;3.88;;;;;;;9.17;100.00;102008.09;5046485;28;20112;-76
2023/09/25 02:12:31;;;;;;;6.82;4.20;;;;;;;9.17;100.00;102008.09;5051530;28;20029;-76
2023/09/25 02:14:57;;;;;;;4.40;3.70;;;;;;;9.13;100.00;102012.09;5051642;28;20047;-76
2023/09/25 02:17:23;;;;;;;4.20;3.65;;;;;;;9.15;100.00;102002.03;5053306;28;20032;-76
2023/09/25 02:19:52;;;;;;;4.85;3.53;;;;;;;9.18;100.00;102007.06;5052493;28;20024;-75
2023/09/25 02:22:17;;;;;;;6.00;3.70;;;;;;;9.14;100.00;102007.53;5059326;28;20058;-76
2023/09/25 02:24:44;;;;;;;5.13;4.10;;;;;;;9.10;100.00;102007.03;5064356;28;20116;-76
2023/09/25 02:27:15;;;;;;;7.38;4.00;;;;;;;9.09;100.00;102008.03;5065819;28;20108;-76
2023/09/25 02:29:40;;;;;;;4.15;3.50;;;;;;;9.09;100.00;102000.78;5071080;28;20021;-76
2023/09/25 02:32:07;;;;;;;5.38;3.83;;;;;;;9.12;100.00;101999.66;5054786;28;20463;-75
2023/09/25 02:34:32;;;;;;;4.45;3.70;;;;;;;9.11;100.00;101997.97;5052572;28;20029;-76
2023/09/25 02:36:58;;;;;;;5.55;4.15;;;;;;;9.10;100.00;102002.47;5054455;28;20036;-76
2023/09/25 02:39:24;;;;;;;3.83;3.40;;;;;;;9.04;100.00;102003.13;5055926;28;20028;-76
2023/09/25 02:41:49;;;;;;;5.55;4.22;;;;;;;9.03;100.00;102005.97;5048244;28;20025;-76
2023/09/25 02:44:15;;;;;;;3.97;3.67;;;;;;;9.05;100.00;102001.28;5052829;28;20481;-76
2023/09/25 02:46:40;;;;;;;;;;;;;;;9.04;100.00;102005.81;5052384;28;20079;-76
2023/09/25 02:49:05;;;;;;;4.00;3.40;;;;;;;9.10;100.00;102002.47;5053331;28;19917;-75
2023/09/25 02:51:31;;;;;;;5.25;4.00;;;;;;;9.21;100.00;102001.38;5039208;28;20099;-75
2023/09/25 02:53:57;;;;;;;;;;;;;;;9.27;100.00;102001.75;5052313;28;20033;-75
2023/09/25 02:56:24;;;;;;;4.60;3.42;;;;;;;9.31;100.00;101997.75;5063037;28;20338;-77
2023/09/25 02:58:49;;;;;;;4.93;3.90;;;;;;;9.37;100.00;102002.44;5054989;28;20036;-75
2023/09/25 03:01:14;;;;;;;4.47;3.80;;;;;;;9.44;100.00;101995.44;5053722;28;20629;-74
2023/09/25 03:03:40;;;;;;;5.28;3.58;;;;;;;9.47;100.00;101989.75;5043277;28;20024;-75
2023/09/25 03:06:06;;;;;;;3.72;3.42;;;;;;;9.44;100.00;101992.75;5061304;28;20082;-75
2023/09/25 03:08:31;;;;;;;4.32;3.67;;;;;;;9.46;100.00;101998.81;5151603;22;20053;-75
2023/09/25 03:10:57;;;;;;;6.63;3.80;;;;;;;9.49;100.00;101994.94;5054670;28;20033;-75
2023/09/25 03:13:23;;;;;;;6.32;3.75;;;;;;;9.64;100.00;102000.56;5051880;28;20036;-75
2023/09/25 03:15:49;;;;;;;3.50;3.20;;;;;;;9.69;99.89;101998.25;5050110;28;20036;-74
2023/09/25 03:18:14;;;;;;;4.43;3.20;;;;;;;9.73;99.15;101996.88;5051852;28;20035;-74
2023/09/25 03:20:39;;;;;;;3.92;3.30;;;;;;;9.80;98.71;102005.13;5051946;28;20367;-75
2023/09/25 03:23:06;;;;;;;5.25;3.40;;;;;;;9.85;98.29;102006.38;5052660;28;20037;-76
2023/09/25 03:25:35;;;;;;;6.47;3.45;;;;;;;9.91;97.79;102012.94;5052642;28;20052;-75
2023/09/25 03:28:00;;;;;;;4.38;3.50;;;;;;;9.92;97.79;102005.69;5051700;28;20063;-76
2023/09/25 03:30:25;;;;;;;3.72;3.28;;;;;;;9.89;97.72;102003.31;5050918;28;20406;-76
2023/09/25 03:32:54;;;;;;;6.15;3.78;;;;;;;9.86;97.88;101999.13;5038789;28;20522;-77
2023/09/25 03:35:20;;;;;;;3.75;3.33;;;;;;;9.88;97.57;102002.50;5054399;28;20033;-75
2023/09/25 03:37:48;;;;;;;5.38;3.35;;;;;;;9.95;97.33;102002.66;5039998;28;20120;-77
2023/09/25 03:40:13;;;;;;;5.38;3.63;;;;;;;9.98;97.00;102003.19;5051837;28;20021;-76
2023/09/25 03:42:40;;;;;;;4.88;3.65;;;;;;;10.01;96.95;102010.09;5050602;28;20036;-76
2023/09/25 03:45:06;;;;;;;5.43;3.25;;;;;;;10.11;96.10;101997.31;5044302;28;20066;-76
2023/09/25 03:47:31;;;;;;;5.88;3.45;;;;;;;10.21;95.22;102002.56;5051314;28;20032;-76
2023/09/25 03:49:57;;;;;;;5.78;3.42;;;;;;;10.27;94.69;102009.97;5050082;28;20025;-76
2023/09/25 03:52:23;;;;;;;4.45;3.10;;;;;;;10.31;94.33;102010.47;5047640;28;20090;-76
2023/09/25 03:54:48;;;;;;;4.35;3.30;;;;;;;10.26;94.47;102005.59;5049419;28;20029;-76
2023/09/25 03:57:13;;;;;;;4.63;3.40;;;;;;;10.32;94.08;102006.78;5048188;28;20035;-76
2023/09/25 03:59:39;;;;;;;4.45;3.17;;;;;;;10.31;93.97;102008.63;5051185;28;20025;-76
2023/09/25 04:02:04;;;;;;;5.68;3.67;;;;;;;10.26;94.10;102010.13;5050675;28;20032;-76
2023/09/25 04:04:30;;;;;;;4.35;3.20;;;;;;;10.24;94.13;102013.00;5049484;28;20028;-76
2023/09/25 04:06:55;;;;;;;5.53;3.25;;;;;;;10.29;93.90;102007.09;5051144;28;20041;-76
2023/09/25 04:09:21;;;;;;;4.97;3.35;;;;;;;10.27;93.77;102001.91;5051717;28;20033;-76
2023/09/25 04:11:46;;;;;;;6.05;3.35;;;;;;;10.30;93.41;102011.47;5050295;28;20127;-76
2023/09/25 04:14:13;;;;;;;3.83;3.25;;;;;;;10.25;93.63;102003.06;5050899;28;20048;-76
2023/09/25 04:16:38;;;;;;;4.40;3.40;;;;;;;10.11;94.13;102002.72;5051708;28;20021;-76
2023/09/25 04:19:04;;;;;;;5.15;3.10;;;;;;;10.05;94.37;101998.00;5050649;28;20078;-76
2023/09/25 04:21:31;;;;;;;3.58;3.28;;;;;;;10.04;94.95;102000.84;5050707;28;20444;-76
2023/09/25 04:23:57;;;;;;;4.63;3.60;;;;;;;9.99;95.04;102006.72;5051584;28;20024;-76
2023/09/25 04:26:23;;;;;;;4.53;3.40;;;;;;;9.94;95.18;102000.97;5046531;28;20103;-76
2023/09/25 04:28:48;;;;;;;6.00;3.83;;;;;;;9.90;95.70;102007.69;5051125;28;20021;-76
2023/09/25 04:31:14;;;;;;;3.85;3.55;;;;;;;9.84;95.91;102007.38;5050365;28;20033;-76
2023/09/25 04:33:40;;;;;;;3.53;3.20;;;;;;;9.87;95.77;102006.19;5048208;28;20390;-76
2023/09/25 04:36:10;;;;;;;5.18;3.30;;;;;;;9.82;95.89;102009.38;5051471;28;20032;-76
2023/09/25 04:38:36;;;;;;;4.50;3.45;;;;;;;9.82;95.75;102009.38;5050674;28;20048;-76
2023/09/25 04:41:02;;;;;;;4.05;3.47;;;;;;;9.88;95.66;102010.56;5050917;28;20025;-76
2023/09/25 04:43:27;;;;;;;3.92;3.28;;;;;;;9.89;95.19;102006.88;5050108;28;20045;-76
2023/09/25 04:45:55;;;;;;;3.97;3.20;;;;;;;9.85;95.30;102009.06;5045654;28;20020;-76
2023/09/25 04:48:20;;;;;;;5.00;3.30;;;;;;;9.84;96.00;102006.50;5050809;28;20021;-76
2023/09/25 04:50:46;;;;;;;4.22;3.20;;;;;;;9.83;95.59;101994.91;5051299;28;20036;-75
2023/09/25 04:53:11;;;;;;;4.47;3.20;;;;;;;9.82;95.43;101993.22;5050312;28;20485;-76
2023/09/25 04:55:40;;;;;;;4.13;3.10;;;;;;;9.79;95.64;101985.50;5049333;28;20029;-78
2023/09/25 04:58:08;;;;;;;5.75;3.47;;;;;;;9.81;95.54;101993.38;5051908;28;20045;-76
2023/09/25 05:00:33;;;;;;;5.70;3.10;;;;;;;9.82;95.52;101995.94;5051765;28;20021;-78
2023/09/25 05:02:59;;;;;;;3.85;3.05;;;;;;;9.79;95.81;102004.31;5049449;28;20031;-75
2023/09/25 05:05:25;;;;;;;4.90;3.22;;;;;;;9.85;95.53;102003.66;5048715;28;20322;-75
2023/09/25 05:07:52;;;;;;;3.80;3.40;;;;;;;9.91;94.99;102001.31;5048737;28;20076;-75
2023/09/25 05:10:22;;;;;;;4.07;3.15;;;;;;;9.91;94.91;102002.16;5041298;28;20036;-76
2023/09/25 05:12:47;;;;;;;5.68;3.20;;;;;;;9.92;94.96;102003.00;5049421;28;20044;-77
2023/09/25 05:15:13;;;;;;;6.38;3.38;;;;;;;9.94;95.03;102009.06;5050126;28;20055;-77
2023/09/25 05:17:39;;;;;;;5.68;2.88;;;;;;;9.99;94.56;102004.03;5051366;28;20035;-77
2023/09/25 05:20:11;;;;;;;4.18;3.03;;;;;;;9.97;94.59;102011.41;5051077;28;20033;-76
2023/09/25 05:22:37;;;;;;;5.50;3.00;;;;;;;9.95;94.41;102002.66;5048068;28;20063;-76
2023/09/25 05:25:07;;;;;;;4.55;2.90;;;;;;;9.93;94.81;102005.53;5051480;28;20064;-76
2023/09/25 05:27:34;;;;;;;3.78;3.00;;;;;;;9.90;94.75;102002.31;5051029;28;20025;-76
2023/09/25 05:29:59;;;;;;;4.03;2.75;;;;;;;9.95;94.62;102003.53;5050855;28;20064;-76
2023/09/25 05:32:26;;;;;;;4.68;3.00;;;;;;;9.92;94.58;101997.63;5050758;28;20352;-77
2023/09/25 05:34:52;;;;;;;3.97;2.83;;;;;;;9.99;94.41;101998.66;5054012;28;20548;-77
2023/09/25 05:37:18;;;;;;;5.07;2.92;;;;;;;10.04;94.14;102001.69;5047963;28;20037;-76
2023/09/25 05:39:44;;;;;;;4.68;2.75;;;;;;;10.08;93.95;102000.34;5056575;28;20048;-76
2023/09/25 05:42:09;;;;;;;4.40;2.95;;;;;;;10.16;93.30;101994.97;5053675;28;20036;-76
2023/09/25 05:44:37;;;;;;;3.63;2.70;;;;;;;10.14;92.95;101994.31;5054440;28;20033;-77
2023/09/25 05:47:02;;;;;;;3.60;2.55;;;;;;;10.22;92.76;101992.66;5057788;28;20036;-77
2023/09/25 05:49:28;;;;;;;3.65;2.45;;;;;;;10.26;92.44;101993.97;5054954;28;20024;-76
2023/09/25 05:51:53;;;;;;;4.82;2.70;;;;;;;10.29;92.47;102004.41;5054673;28;20388;-76
2023/09/25 05:54:21;;;;;;;4.47;2.60;;;;;;;10.35;91.97;102003.75;5064165;28;20357;-77
2023/09/25 05:56:47;;;;;;;3.75;2.65;;;;;;;10.43;91.66;102006.47;5061481;28;20166;-77
2023/09/25 05:59:13;;;;;;;4.25;2.67;;;;;;;10.51;91.34;102005.63;5063806;28;20025;-77
2023/09/25 06:01:39;;;;;;;5.30;3.05;;;;;;;10.77;90.76;102010.84;5057258;28;20445;-76
2023/09/25 06:04:05;;;;;;;3.33;2.55;;;;;;;10.95;88.62;102025.97;5053048;28;20057;-77
2023/09/25 06:06:33;;;;;;;5.13;2.70;;;;;;;11.11;87.54;102018.91;5053669;28;20047;-77
2023/09/25 06:08:59;;;;;;;3.53;2.85;;;;;;;11.35;86.21;102020.69;5054007;28;20037;-77
2023/09/25 06:11:25;;;;;;;4.18;2.45;;;;;;;11.25;86.22;102031.66;5053307;28;20056;-77
2023/09/25 06:13:50;;;;;;;5.50;2.90;;;;;;;11.31;86.00;102030.94;5053656;28;20017;-76
2023/09/25 06:16:16;;;;;;;4.72;2.67;;;;;;;11.46;85.49;102033.78;5053545;28;20039;-77
2023/09/25 06:18:42;;;;;;;4.68;2.70;;;;;;;11.68;84.29;102042.97;5050969;28;20389;-77
2023/09/25 06:21:10;;;;;;;5.43;2.42;;;;;;;11.79;83.41;102036.34;5052062;28;20029;-77
2023/09/25 06:23:36;;;;;;;5.50;2.53;;;;;;;11.86;83.20;102033.78;5045434;28;20087;-76
2023/09/25 06:26:02;;;;;;;5.18;2.47;;;;;;;11.97;82.46;102043.34;5052406;28;20052;-77
2023/09/25 06:28:29;;;;;;;4.80;2.40;;;;;;;12.42;81.14;102041.75;5053172;28;20045;-76
2023/09/25 06:30:55;;;;;;;4.55;2.55;;;;;;;13.03;78.51;102045.47;5055351;28;20049;-76
2023/09/25 06:33:22;;;;;;;4.50;2.50;;;;;;;13.99;74.43;102038.47;5051928;28;20110;-77
2023/09/25 06:35:48;;;;;;;4.35;2.20;;;;;;;14.74;71.18;102049.84;5050561;28;20437;-77
2023/09/25 06:38:16;;;;;;;4.55;2.40;;;;;;;15.01;69.24;102039.22;5053131;28;20079;-77
2023/09/25 06:40:47;;;;;;;4.35;2.30;;;;;;;15.66;66.20;102041.69;5051303;28;20039;-77
2023/09/25 06:43:13;;;;;;;3.08;2.20;;;;;;;15.95;64.89;102036.19;5042461;28;20052;-77
2023/09/25 06:45:39;;;;;;;2.90;2.35;;;;;;;15.85;64.50;102039.28;5052080;28;20029;-77
2023/09/25 06:48:04;;;;;;;2.58;2.20;;;;;;;16.37;63.23;102035.06;5034885;28;20056;-77
2023/09/25 06:50:30;;;;;;;2.63;2.20;;;;;;;16.43;62.61;102046.16;5052253;28;20037;-77
2023/09/25 06:52:56;;;;;;;3.08;2.33;;;;;;;16.10;62.70;102044.19;5052746;28;20439;-77
2023/09/25 06:55:21;;;;;;;2.72;2.38;;;;;;;15.71;64.24;102043.81;5052557;28;20116;-77
2023/09/25 06:57:47;;;;;;;3.70;2.67;;;;;;;15.50;65.82;102045.59;5051410;28;20090;-77
2023/09/25 07:00:13;;;;;;;3.20;2.50;;;;;;;15.29;66.01;102039.22;5052620;28;20021;-77
2023/09/25 07:02:39;;;;;;;7.03;3.03;;;;;;;15.37;65.98;102048.22;5052504;28;20032;-77
2023/09/25 07:05:05;;;;;;;3.85;2.80;;;;;;;15.16;67.57;102050.00;5053282;28;20078;-77
2023/09/25 07:07:30;;;;;;;4.28;2.63;;;;;;;15.64;65.88;102051.09;5052864;28;20124;-77
2023/09/25 07:09:56;;;;;;;3.20;2.53;;;;;;;16.07;64.59;102045.44;5052818;28;20040;-77
2023/09/25 07:12:22;;;;;;;5.47;2.92;;;;;;;16.54;62.65;102050.97;5047825;28;20037;-77
2023/09/25 07:14:58;;;;;;;4.40;2.90;;;;;;;17.47;59.32;102042.97;5053056;28;20021;-77
2023/09/25 07:17:27;;;;;;;3.58;2.60;;;;;;;17.82;57.69;102037.19;5050925;28;20381;-77
2023/09/25 07:19:53;;;;;;;3.90;2.58;;;;;;;18.46;55.57;102042.69;5051490;28;20029;-77
2023/09/25 07:22:20;;;;;;;4.40;2.45;;;;;;;18.97;53.97;102046.31;5050887;28;20045;-77
2023/09/25 07:24:45;;;;;;;4.45;2.70;;;;;;;19.63;52.09;102054.00;5043290;28;20045;-77
2023/09/25 07:27:11;;;;;;;3.65;2.50;;;;;;;20.64;49.45;102053.47;5050468;28;20146;-77
2023/09/25 07:29:37;;;;;;;4.38;2.67;;;;;;;21.33;47.15;102050.19;5052709;28;20441;-77
2023/09/25 07:32:02;;;;;;;5.45;2.67;;;;;;;21.74;44.97;102038.44;5049968;28;20098;-77
2023/09/25 07:34:29;;;;;;;4.30;2.90;;;;;;;21.48;46.35;102041.44;5050364;28;20032;-77
2023/09/25 07:36:55;;;;;;;4.38;2.60;;;;;;;21.71;45.51;102045.22;5053218;28;20036;-76
2023/09/25 07:39:22;;;;;;;4.55;2.75;;;;;;;22.11;43.61;102038.88;5053408;28;20115;-77
2023/09/25 07:41:49;;;;;;;5.53;2.78;;;;;;;21.75;44.76;102046.41;5052953;28;20189;-77
2023/09/25 07:44:18;;;;;;;4.45;2.70;;;;;;;21.59;44.29;102042.50;5055250;28;20110;-77
2023/09/25 07:46:47;;;;;;;5.50;2.85;;;;;;;21.80;44.41;102034.72;5053633;28;20139;-76
2023/09/25 07:49:12;;;;;;;4.38;2.60;;;;;;;21.16;45.92;102036.38;5051160;28;20033;-77
2023/09/25 07:51:37;;;;;;;4.70;2.90;;;;;;;21.56;45.06;102037.50;5050814;28;20033;-77
2023/09/25 07:54:03;;;;;;;5.55;2.80;;;;;;;21.34;45.12;102046.38;5051848;28;20033;-77
2023/09/25 07:56:29;;;;;;;3.78;2.72;;;;;;;21.23;45.59;102036.25;5047747;28;20109;-77
2023/09/25 07:58:55;;;;;;;5.45;2.60;;;;;;;20.62;46.18;102043.81;5051409;28;20108;-77
2023/09/25 08:01:22;;;;;;;4.47;2.53;;;;;;;20.21;47.17;102049.09;5050976;28;20457;-76
2023/09/25 08:03:51;;;;;;;4.85;2.70;;;;;;;20.10;48.25;102048.81;5050084;28;20086;-76
2023/09/25 08:06:19;;;;;;;5.30;2.60;;;;;;;20.52;47.56;102049.88;5051842;28;20040;-76
2023/09/25 08:08:45;;;;;;;3.78;2.55;;;;;;;21.73;44.98;102047.72;5049332;28;20055;-76
2023/09/25 08:11:17;;;;;;;4.47;2.72;;;;;;;22.46;42.13;102048.00;5049005;28;20045;-76
2023/09/25 08:13:42;;;;;;;5.18;2.83;;;;;;;22.70;42.17;102045.13;5050806;28;20441;-77
2023/09/25 08:16:08;;;;;;;3.75;2.53;;;;;;;22.50;42.19;102046.44;5051494;28;20135;-77
2023/09/25 08:18:34;;;;;;;5.20;2.40;;;;;;;22.47;42.64;102057.09;5050327;28;20025;-76
2023/09/25 08:21:00;;;;;;;4.55;2.30;;;;;;;22.91;41.84;102051.75;5049664;28;20021;-77
2023/09/25 08:23:26;;;;;;;4.57;2.42;;;;;;;22.99;41.14;102053.25;5050521;28;20063;-77
2023/09/25 08:25:51;;;;;;;7.90;2.90;;;;;;;23.65;40.43;102049.75;5050042;28;20108;-76
2023/09/25 08:28:16;;;;;;;3.83;2.60;;;;;;;23.56;40.48;102048.56;5051473;28;20100;-77
2023/09/25 08:30:42;;;;;;;5.57;2.60;;;;;;;24.25;40.41;102046.31;5050904;28;20037;-77
2023/09/25 08:33:07;;;;;;;4.53;2.33;;;;;;;25.05;38.13;102053.84;5049909;28;20462;-77
2023/09/25 08:35:33;;;;;;;4.55;2.33;;;;;;;25.58;35.67;102051.94;5051076;28;20039;-77
2023/09/25 08:37:59;;;;;;;3.20;2.30;;;;;;;24.68;37.20;102056.31;5049562;28;20040;-76
2023/09/25 08:40:24;;;;;;;6.25;2.60;;;;;;;24.98;36.75;102037.53;5050886;28;20033;-77
2023/09/25 08:42:51;;;;;;;3.00;2.15;;;;;;;24.49;37.54;102052.31;5050650;28;20021;-77
2023/09/25 08:45:18;;;;;;;3.58;2.40;;;;;;;23.92;38.61;102043.47;5050417;28;20029;-77
2023/09/25 08:47:43;;;;;;;4.22;2.58;;;;;;;23.59;39.62;102046.13;5050544;28;20494;-76
2023/09/25 08:50:09;;;;;;;5.93;2.35;;;;;;;23.70;40.06;102049.00;5033082;28;20025;-77
2023/09/25 08:52:41;;;;;;;3.17;2.25;;;;;;;23.10;40.57;102049.59;5048955;28;20071;-77
2023/09/25 08:55:08;;;;;;;3.20;2.25;;;;;;;22.97;39.30;102039.78;5050684;28;20025;-77
2023/09/25 08:57:35;;;;;;;4.88;2.25;;;;;;;22.92;40.02;102033.38;5033073;28;20124;-77
2023/09/25 09:00:03;;;;;;;3.97;2.60;;;;;;;22.08;41.25;102038.53;5051122;28;20025;-76
2023/09/25 09:02:31;;;;;;;5.90;2.53;;;;;;;22.55;41.61;102038.31;5050804;28;20033;-76
2023/09/25 09:04:58;;;;;;;4.55;2.42;;;;;;;22.31;41.35;102036.75;5046807;28;20071;-76
2023/09/25 09:07:23;;;;;;;4.50;2.53;;;;;;;22.62;41.45;102037.28;5051218;28;20076;-76
2023/09/25 09:09:51;;;;;;;3.42;2.38;;;;;;;22.90;40.85;102032.78;5054681;28;20018;-76
2023/09/25 09:12:17;;;;;;;4.75;2.60;;;;;;;22.45;41.28;102031.81;5054051;28;20544;-76
2023/09/25 09:14:43;;;;;;;4.97;2.50;;;;;;;22.78;40.73;102030.97;5054935;28;20102;-77
2023/09/25 09:17:10;;;;;;;4.00;2.38;;;;;;;23.31;40.71;102044.38;5053797;28;20037;-76
2023/09/25 09:19:55;;;;;;;3.85;2.35;;;;;;;23.49;40.10;102040.50;5053234;28;20029;-77
2023/09/25 09:22:21;;;;;;;5.00;2.50;;;;;;;22.97;40.04;102034.28;5054750;28;20114;-76
2023/09/25 09:24:48;;;;;;;6.60;2.60;;;;;;;22.95;39.81;102030.09;5054664;28;20045;-76
2023/09/25 09:27:17;;;;;;;4.00;2.30;;;;;;;23.19;40.24;102036.25;5053836;28;20032;-77
2023/09/25 09:29:43;;;;;;;4.60;2.25;;;;;;;23.46;39.22;102025.38;5055426;28;20070;-76
2023/09/25 09:32:08;;;;;;;5.47;2.60;;;;;;;23.50;39.99;102028.44;5054794;28;20430;-76
2023/09/25 09:34:35;;;;;;;4.20;2.00;;;;;;;23.62;39.79;102031.03;5052653;28;20033;-77
2023/09/25 09:37:00;;;;;;;4.30;2.20;;;;;;;24.51;37.40;102022.59;5055463;28;20029;-76
2023/09/25 09:39:26;;;;;;;5.53;2.25;;;;;;;24.74;35.80;102032.44;5054216;28;20468;-77
2023/09/25 09:41:53;;;;;;;3.92;2.05;;;;;;;24.32;36.04;102025.75;5053455;28;20341;-76
2023/09/25 09:44:19;;;;;;;3.38;1.90;;;;;;;23.61;37.75;102026.63;5055643;28;20103;-77
2023/09/25 09:46:46;;;;;;;3.28;2.00;;;;;;;23.27;38.39;102021.25;5054797;28;20520;-76
2023/09/25 09:49:13;;;;;;;3.50;1.98;;;;;;;23.02;39.37;102015.16;5052990;28;20064;-76
2023/09/25 09:51:39;;;;;;;3.65;2.10;;;;;;;23.18;39.67;102012.59;5054819;28;20409;-76
2023/09/25 09:54:05;;;;;;;4.68;1.92;;;;;;;23.46;38.55;102019.03;5036642;28;20029;-76
2023/09/25 09:56:32;;;;;;;3.22;2.30;;;;;;;23.73;37.96;102015.50;5044209;28;20041;-76
2023/09/25 09:58:58;;;;;;;4.40;2.25;;;;;;;23.90;37.43;102018.16;5054104;28;20056;-76
2023/09/25 10:01:24;;;;;;;4.32;2.08;;;;;;;23.77;37.81;102008.38;5053703;28;20032;-76
2023/09/25 10:03:49;;;;;;;3.67;2.15;;;;;;;23.36;38.86;102008.72;5053042;28;20029;-76
2023/09/25 10:06:15;;;;;;;2.92;2.05;;;;;;;24.24;37.57;102006.13;5042935;28;20033;-76
2023/09/25 10:09:00;;;;;;;4.63;2.42;;;;;;;24.49;36.66;102008.28;5050023;28;20041;-77
2023/09/25 10:11:25;;;;;;;5.27;2.40;;;;;;;23.98;38.88;102016.88;5053406;28;20025;-76
2023/09/25 10:14:04;;;;;;;3.92;2.10;;;;;;;24.51;37.49;102012.41;5036943;28;20507;-75
2023/09/25 10:16:55;;;;;;;2.15;1.65;;;;;;;24.52;37.51;102024.25;5052970;28;20064;-77
2023/09/25 10:19:22;;;;;;;3.58;2.10;;;;;;;24.72;35.98;102011.75;5044503;28;20054;-77
2023/09/25 10:22:09;;;;;;;3.50;2.17;;;;;;;24.41;36.45;102019.75;5055794;28;20099;-77
2023/09/25 10:24:34;;;;;;;4.38;1.90;;;;;;;24.22;38.28;102014.63;5054465;28;20039;-76
2023/09/25 10:27:00;;;;;;;2.88;1.90;;;;;;;24.65;37.64;102029.31;5055771;28;20025;-76
2023/09/25 10:29:25;;;;;;;3.70;2.00;;;;;;;24.57;35.97;102018.78;5056201;28;20314;-77
2023/09/25 10:31:51;;;;;;;2.53;1.95;;;;;;;24.73;35.98;102017.00;5021544;28;20025;-77
2023/09/25 10:34:19;;;;;;;3.25;2.15;;;;;;;25.00;35.80;102013.31;5054465;28;20052;-75
2023/09/25 10:36:47;;;;;;;4.32;1.70;;;;;;;24.85;35.70;102029.75;5057419;28;20024;-75
2023/09/25 10:39:15;;;;;;;3.10;1.88;;;;;;;24.39;36.06;102028.28;5056894;28;20028;-75
2023/09/25 10:41:42;;;;;;;2.17;1.70;;;;;;;24.41;36.17;102019.75;5061175;28;20021;-75
2023/09/25 10:44:09;;;;;;;4.65;1.83;;;;;;;24.34;36.79;102022.72;5053940;28;20029;-76
2023/09/25 10:46:35;;;;;;;3.10;1.80;;;;;;;24.17;37.66;102011.84;5052437;28;20029;-75
2023/09/25 10:49:00;;;;;;;2.50;1.70;;;;;;;24.87;36.35;102017.38;5052100;28;20036;-75
2023/09/25 10:51:26;;;;;;;3.10;1.52;;;;;;;24.97;36.47;102011.94;5052664;28;20036;-75
2023/09/25 10:53:51;;;;;;;2.72;1.67;;;;;;;25.28;36.23;102012.06;5052799;28;20028;-75
2023/09/25 10:56:16;;;;;;;3.35;1.60;;;;;;;25.27;35.61;102015.13;5052725;28;20486;-76
2023/09/25 10:58:47;;;;;;;3.63;1.60;;;;;;;25.41;35.93;102018.22;5051594;28;20033;-76
2023/09/25 11:01:15;;;;;;;3.17;1.67;;;;;;;25.62;35.05;102012.78;5051282;28;20170;-76
2023/09/25 11:03:41;;;;;;;3.75;1.98;;;;;;;25.76;35.40;102013.94;5037560;28;20017;-76
2023/09/25 11:06:07;;;;;;;4.65;1.77;;;;;;;25.47;35.11;102017.16;5052606;28;20028;-76
2023/09/25 11:08:34;;;;;;;3.28;2.00;;;;;;;25.30;35.25;102010.97;5051393;28;20052;-76
2023/09/25 11:10:59;;;;;;;2.38;1.63;;;;;;;25.33;36.57;102010.44;5070432;28;20544;-76
2023/09/25 11:13:25;;;;;;;3.10;1.70;;;;;;;25.43;34.91;102008.59;5061132;28;20033;-77
2023/09/25 11:15:53;;;;;;;2.05;1.58;;;;;;;25.61;35.56;102000.09;5048776;28;20469;-76
2023/09/25 11:18:27;;;;;;;4.10;1.73;;;;;;;25.70;35.78;101999.28;5023507;28;20021;-76
2023/09/25 11:20:52;;;;;;;2.97;1.70;;;;;;;25.83;35.26;101997.94;5052472;28;20025;-76
2023/09/25 11:23:18;;;;;;;3.00;1.73;;;;;;;25.75;36.12;102001.25;5052948;28;20130;-77
2023/09/25 11:25:46;;;;;;;4.50;1.70;;;;;;;25.78;35.81;102000.69;5052341;28;20021;-76